Time,TemperatureF,DewpointF,PressureIn,WindDirection,WindDirectionDegrees,WindSpeedMPH,WindSpeedGustMPH,Humidity,HourlyPrecipIn,Conditions,Clouds,dailyrainin,SoftwareType,DateUTC
2014-11-26 00:40:00,36.0,36.0,-100.00,North,-999,-999.0,-999.0,100,-99.99,,,-99.99,,2014-11-26 08:40:00,
2014-11-26 01:22:00,36.0,36.0,-100.00,North,-999,-999.0,-999.0,100,-99.99,,,-99.99,,2014-11-26 09:22:00,
2014-11-26 01:54:00,36.0,36.0,-100.00,North,-999,-999.0,-999.0,100,-99.99,,,-99.99,,2014-11-26 09:54:00,
2014-11-26 02:10:00,36.0,36.0,-100.00,North,-999,-999.0,-999.0,100,-99.99,,,-99.99,,2014-11-26 10:10:00,
2014-11-26 02:13:00,36.0,36.0,-100.00,North,-999,-999.0,-999.0,100,-99.99,,,-99.99,,2014-11-26 10:13:00,
2014-11-26 02:23:00,36.0,36.0,-100.00,North,-999,-999.0,-999.0,100,-99.99,,,-99.99,,2014-11-26 10:23:00,
2014-11-26 02:40:00,37.0,37.0,-100.00,North,-999,-999.0,-999.0,100,-99.99,,,-99.99,,2014-11-26 10:40:00,
2014-11-26 02:53:00,36.0,36.0,-100.00,North,-999,-999.0,-999.0,100,-99.99,,,-99.99,,2014-11-26 10:53:00,
2014-11-26 03:10:00,37.0,37.0,-100.00,North,-999,-999.0,-999.0,100,-99.99,,,-99.99,,2014-11-26 11:10:00,
2014-11-26 03:22:00,36.0,36.0,-100.00,North,-999,-999.0,-999.0,100,-99.99,,,-99.99,,2014-11-26 11:22:00,
2014-11-26 03:53:00,37.0,37.0,-100.00,North,-999,-999.0,-999.0,100,-99.99,,,-99.99,,2014-11-26 11:53:00,
2014-11-26 04:10:00,36.0,36.0,-100.00,North,-999,-999.0,-999.0,100,-99.99,,,-99.99,,2014-11-26 12:10:00,
2014-11-26 04:22:00,38.0,38.0,-100.00,North,-999,-999.0,-999.0,100,-99.99,,,-99.99,,2014-11-26 12:22:00,
2014-11-26 04:42:00,37.0,37.0,-100.00,North,-999,-999.0,-999.0,100,-99.99,,,-99.99,,2014-11-26 12:42:00,
2014-11-26 04:52:00,37.0,37.0,-100.00,North,-999,-999.0,-999.0,100,-99.99,,,-99.99,,2014-11-26 12:52:00,
2014-11-26 05:10:00,34.0,34.0,-100.00,North,-999,-999.0,-999.0,100,-99.99,,,-99.99,,2014-11-26 13:10:00,
2014-11-26 05:22:00,36.0,36.0,-100.00,North,-999,-999.0,-999.0,100,-99.99,,,-99.99,,2014-11-26 13:22:00,
2014-11-26 05:50:00,33.0,33.0,-100.00,North,-999,-999.0,-999.0,100,-99.99,,,-99.99,,2014-11-26 13:50:00,
2014-11-26 05:52:00,34.0,34.0,-100.00,North,-999,-999.0,-999.0,100,-99.99,,,-99.99,,2014-11-26 13:52:00,
2014-11-26 06:10:00,32.0,32.0,-100.00,North,-999,-999.0,-999.0,100,-99.99,,,-99.99,,2014-11-26 14:10:00,
2014-11-26 06:22:00,33.0,33.0,-100.00,North,-999,-999.0,-999.0,100,-99.99,,,-99.99,,2014-11-26 14:22:00,
2014-11-26 06:40:00,32.0,32.0,-100.00,North,-999,-999.0,-999.0,100,-99.99,,,-99.99,,2014-11-26 14:40:00,
2014-11-26 07:10:00,31.0,31.0,-100.00,North,-999,-999.0,-999.0,100,-99.99,,,-99.99,,2014-11-26 15:10:00,
2014-11-26 07:23:00,32.0,32.0,-100.00,North,-999,-999.0,-999.0,100,-99.99,,,-99.99,,2014-11-26 15:23:00,
2014-11-26 07:40:00,32.0,32.0,-100.00,North,-999,-999.0,-999.0,100,-99.99,,,-99.99,,2014-11-26 15:40:00,
2014-11-26 07:54:00,31.0,31.0,-100.00,North,-999,-999.0,-999.0,100,-99.99,,,-99.99,,2014-11-26 15:54:00,
2014-11-26 08:10:00,32.0,32.0,-100.00,North,-999,-999.0,-999.0,100,-99.99,,,-99.99,,2014-11-26 16:10:00,
2014-11-26 08:24:00,31.0,31.0,-100.00,North,-999,-999.0,-999.0,100,-99.99,,,-99.99,,2014-11-26 16:24:00,
2014-11-26 08:40:00,35.0,35.0,-100.00,North,-999,-999.0,-999.0,100,-99.99,,,-99.99,,2014-11-26 16:40:00,
2014-11-26 08:54:00,32.0,32.0,-100.00,North,-999,-999.0,-999.0,100,-99.99,,,-99.99,,2014-11-26 16:54:00,
2014-11-26 09:22:00,33.0,33.0,-100.00,North,-999,-999.0,-999.0,100,-99.99,,,-99.99,,2014-11-26 17:22:00,
2014-11-26 09:52:00,37.0,37.0,-100.00,North,-999,-999.0,-999.0,100,-99.99,,,-99.99,,2014-11-26 17:52:00,
2014-11-26 10:10:00,40.0,40.0,-100.00,North,-999,-999.0,-999.0,100,-99.99,,,-99.99,,2014-11-26 18:10:00,
2014-11-26 10:22:00,38.0,38.0,-100.00,North,-999,-999.0,-999.0,100,-99.99,,,-99.99,,2014-11-26 18:22:00,
2014-11-26 10:40:00,43.0,43.0,-100.00,North,-999,-999.0,-999.0,100,-99.99,,,-99.99,,2014-11-26 18:40:00,
2014-11-26 10:43:00,40.0,40.0,-100.00,North,-999,-999.0,-999.0,100,-99.99,,,-99.99,,2014-11-26 18:43:00,
2014-11-26 10:53:00,40.0,40.0,-100.00,North,-999,-999.0,-999.0,100,-99.99,,,-99.99,,2014-11-26 18:53:00,
2014-11-26 11:10:00,48.0,41.0,-100.00,North,-999,-999.0,-999.0,76,-99.99,,,-99.99,,2014-11-26 19:10:00,
2014-11-26 11:22:00,41.0,41.0,-100.00,North,-999,-999.0,-999.0,100,-99.99,,,-99.99,,2014-11-26 19:22:00,
2014-11-26 11:52:00,46.0,44.0,-100.00,North,-999,-999.0,-999.0,93,-99.99,,,-99.99,,2014-11-26 19:52:00,
2014-11-26 12:10:00,49.0,37.0,-100.00,North,-999,-999.0,-999.0,64,-99.99,,,-99.99,,2014-11-26 20:10:00,
2014-11-26 12:22:00,49.0,39.0,-100.00,North,-999,-999.0,-999.0,67,-99.99,,,-99.99,,2014-11-26 20:22:00,
2014-11-26 12:42:00,49.0,39.0,-100.00,North,-999,-999.0,-999.0,67,-99.99,,,-99.99,,2014-11-26 20:42:00,
2014-11-26 12:52:00,49.0,38.0,-100.00,North,-999,-999.0,-999.0,65,-99.99,,,-99.99,,2014-11-26 20:52:00,
2014-11-26 13:10:00,50.0,36.0,-100.00,North,-999,-999.0,-999.0,59,-99.99,,,-99.99,,2014-11-26 21:10:00,
2014-11-26 13:20:00,49.0,36.0,-100.00,North,-999,-999.0,-999.0,61,-99.99,,,-99.99,,2014-11-26 21:20:00,
2014-11-26 13:22:00,50.0,38.0,-100.00,North,-999,-999.0,-999.0,62,-99.99,,,-99.99,,2014-11-26 21:22:00,
2014-11-26 13:44:00,50.0,37.0,-100.00,North,-999,-999.0,-999.0,60,-99.99,,,-99.99,,2014-11-26 21:44:00,
2014-11-26 15:53:00,45.0,38.0,-100.00,North,-999,-999.0,-999.0,75,-99.99,,,-99.99,,2014-11-26 23:53:00,
2014-11-26 16:22:00,43.0,37.0,-100.00,North,-999,-999.0,-999.0,78,-99.99,,,-99.99,,2014-11-27 00:22:00,
2014-11-26 16:40:00,40.0,36.0,-100.00,North,-999,-999.0,-999.0,86,-99.99,,,-99.99,,2014-11-27 00:40:00,
2014-11-26 16:42:00,42.0,37.0,-100.00,North,-999,-999.0,-999.0,81,-99.99,,,-99.99,,2014-11-27 00:42:00,
2014-11-26 16:52:00,42.0,37.0,-100.00,North,-999,-999.0,-999.0,82,-99.99,,,-99.99,,2014-11-27 00:52:00,
2014-11-26 17:22:00,40.0,36.0,-100.00,North,-999,-999.0,-999.0,86,-99.99,,,-99.99,,2014-11-27 01:22:00,
2014-11-26 17:52:00,39.0,35.0,-100.00,North,-999,-999.0,-999.0,87,-99.99,,,-99.99,,2014-11-27 01:52:00,
2014-11-26 18:12:00,39.0,36.0,-100.00,North,-999,-999.0,-999.0,88,-99.99,,,-99.99,,2014-11-27 02:12:00,
2014-11-26 18:22:00,39.0,35.0,-100.00,North,-999,-999.0,-999.0,86,-99.99,,,-99.99,,2014-11-27 02:22:00,